Time;durP1;ratioP1;P1;durP2;ratioP2;P2;SDS_P1;SDS_P2;PMS_P1;PMS_P2;Temp;Humidity;BMP_temperature;BMP_pressure;BME280_temperature;BME280_humidity;BME280_pressure;Samples;Min_cycle;Max_cycle;Signal;HPM_P1;HPM_P2
2022/02/20 00:01:29;;;;;;;19.93;2.57;;;8.80;99.90;;;;;;5185443;22;20154;-95
2022/02/20 00:06:31;;;;;;;19.13;2.53;;;8.70;99.90;;;;;;5179694;22;20158;-93
2022/02/20 00:08:52;;;;;;;14.70;1.73;;;8.70;99.90;;;;;;5177783;22;20162;-94
2022/02/20 00:11:06;;;;;;;8.03;1.10;;;8.80;99.90;;;;;;5181044;22;20135;-93
2022/02/20 00:13:27;;;;;;;13.37;1.63;;;8.60;99.90;;;;;;5158799;23;20143;-94
2022/02/20 00:15:38;;;;;;;7.57;1.83;;;8.70;99.90;;;;;;5179743;22;20288;-96
2022/02/20 00:18:01;;;;;;;19.43;1.93;;;8.60;99.90;;;;;;5208123;22;20150;-95
2022/02/20 00:20:46;;;;;;;13.30;2.00;;;8.70;99.90;;;;;;5207940;22;20166;-96
2022/02/20 00:23:15;;;;;;;14.97;1.70;;;8.70;99.90;;;;;;5208966;22;20149;-95
2022/02/20 00:25:56;;;;;;;8.27;1.23;;;8.60;99.90;;;;;;5171476;22;20175;-96
2022/02/20 00:28:02;;;;;;;12.60;1.50;;;8.60;99.90;;;;;;5209857;22;20154;-95
2022/02/20 00:30:07;;;;;;;12.27;1.57;;;8.50;99.90;;;;;;5181673;22;20203;-95
2022/02/20 00:32:21;;;;;;;12.73;1.60;;;8.40;99.90;;;;;;5207251;22;20138;-95
2022/02/20 00:34:30;;;;;;;14.03;1.57;;;8.40;99.90;;;;;;5203902;22;20170;-96
2022/02/20 00:37:12;;;;;;;15.53;1.70;;;8.40;99.90;;;;;;5207638;22;20169;-95
2022/02/20 00:39:22;;;;;;;18.97;1.87;;;8.20;99.90;;;;;;5205026;22;20587;-95
2022/02/20 00:41:46;;;;;;;20.60;1.60;;;8.40;99.90;;;;;;5182672;22;20138;-95
2022/02/20 00:43:49;;;;;;;16.07;1.93;;;8.40;99.90;;;;;;5226436;22;20199;-95
2022/02/20 00:46:22;;;;;;;4.90;0.93;;;8.50;99.90;;;;;;5154650;22;20182;-96
2022/02/20 00:48:30;;;;;;;11.90;1.50;;;8.40;99.90;;;;;;5156642;22;20146;-96
2022/02/20 00:50:34;;;;;;;17.03;1.20;;;8.40;99.90;;;;;;5153614;23;20238;-96
2022/02/20 00:52:37;;;;;;;14.23;2.20;;;8.40;99.90;;;;;;5155468;23;20162;-95
2022/02/20 00:55:03;;;;;;;13.60;1.83;;;8.40;99.90;;;;;;5142323;23;20155;-95
2022/02/20 00:57:24;;;;;;;10.57;1.50;;;8.40;99.90;;;;;;5181651;22;20531;-95
2022/02/20 00:59:49;;;;;;;19.23;1.80;;;8.50;99.90;;;;;;5180799;22;20138;-95
2022/02/20 01:02:25;;;;;;;13.27;2.13;;;8.40;99.90;;;;;;5179882;22;20643;-95
2022/02/20 01:04:54;;;;;;;13.33;1.63;;;8.40;99.90;;;;;;5177642;22;20736;-95
2022/02/20 01:07:04;;;;;;;19.40;2.10;;;8.30;99.90;;;;;;5205180;22;20153;-95
2022/02/20 01:09:13;;;;;;;15.23;1.50;;;8.30;99.90;;;;;;5157344;23;20158;-94
2022/02/20 01:11:45;;;;;;;10.73;1.50;;;8.40;99.90;;;;;;5181847;22;20139;-94
2022/02/20 01:13:58;;;;;;;8.60;1.30;;;8.30;99.90;;;;;;5151428;22;20160;-94
2022/02/20 01:16:15;;;;;;;11.60;1.73;;;8.20;99.90;;;;;;5209655;22;20138;-96
2022/02/20 01:18:35;;;;;;;15.27;1.80;;;8.20;99.90;;;;;;5178636;22;20135;-95
2022/02/20 01:21:14;;;;;;;12.73;1.43;;;8.00;99.90;;;;;;5180344;22;20146;-95
2022/02/20 01:23:30;;;;;;;15.27;1.67;;;7.90;99.90;;;;;;5172641;22;20197;-95
2022/02/20 01:25:49;;;;;;;9.70;1.70;;;8.10;99.90;;;;;;5182511;22;20222;-94
2022/02/20 01:28:08;;;;;;;14.53;2.00;;;8.20;99.90;;;;;;5154585;23;20466;-96
2022/02/20 01:30:25;;;;;;;21.27;2.30;;;8.10;99.90;;;;;;5154959;23;20160;-95
2022/02/20 01:32:28;;;;;;;21.17;2.20;;;8.20;99.90;;;;;;5204370;22;20151;-95
2022/02/20 01:34:49;;;;;;;10.27;1.83;;;8.20;99.90;;;;;;5204926;22;20157;-96
2022/02/20 01:37:12;;;;;;;17.07;2.17;;;8.10;99.90;;;;;;5180289;22;20145;-96
2022/02/20 01:39:30;;;;;;;22.47;2.40;;;8.20;99.90;;;;;;5179627;22;20138;-96
2022/02/20 01:41:42;;;;;;;23.60;2.47;;;8.10;99.90;;;;;;5182313;22;20150;-95
2022/02/20 01:43:56;;;;;;;17.23;2.73;;;8.30;99.90;;;;;;5153582;23;20174;-95
2022/02/20 01:46:20;;;;;;;20.10;2.33;;;8.10;99.90;;;;;;5180924;22;20166;-95
2022/02/20 01:48:36;;;;;;;19.50;2.47;;;8.00;99.90;;;;;;5180387;22;20257;-95
2022/02/20 01:51:03;;;;;;;26.97;2.73;;;8.00;99.90;;;;;;5185610;22;20131;-95
2022/02/20 01:53:04;;;;;;;13.13;2.17;;;8.00;99.90;;;;;;5207243;22;20177;-94
2022/02/20 01:55:15;;;;;;;16.10;2.63;;;8.00;99.90;;;;;;5181459;22;20166;-94
2022/02/20 01:58:04;;;;;;;19.00;2.53;;;8.00;99.90;;;;;;5179676;22;20167;-95
2022/02/20 02:00:24;;;;;;;15.47;2.40;;;7.90;99.90;;;;;;5181100;22;20147;-96
2022/02/20 02:03:04;;;;;;;22.17;3.50;;;7.90;99.90;;;;;;5184595;22;20234;-96
2022/02/20 02:05:39;;;;;;;18.17;2.20;;;7.90;99.90;;;;;;5180830;22;20174;-95
2022/02/20 02:07:46;;;;;;;20.27;2.40;;;8.00;99.90;;;;;;5158009;23;20156;-95
2022/02/20 02:10:13;;;;;;;21.93;2.80;;;8.00;99.90;;;;;;5181346;22;20238;-96
2022/02/20 02:12:35;;;;;;;31.07;3.50;;;8.00;99.90;;;;;;5159065;22;20163;-95
2022/02/20 02:15:02;;;;;;;18.17;2.60;;;8.00;99.90;;;;;;5181104;22;20223;-95
2022/02/20 02:17:25;;;;;;;24.53;3.53;;;8.00;99.90;;;;;;5160014;23;20220;-96
2022/02/20 02:19:44;;;;;;;27.77;3.40;;;8.10;99.90;;;;;;5158316;23;20159;-95
2022/02/20 02:22:12;;;;;;;25.40;3.23;;;8.10;99.90;;;;;;5186029;22;20237;-94
2022/02/20 02:24:55;;;;;;;31.03;3.87;;;8.10;99.90;;;;;;5182106;22;20182;-94
2022/02/20 02:27:36;;;;;;;19.17;2.77;;;8.20;99.90;;;;;;5176369;22;20142;-95
2022/02/20 02:30:24;;;;;;;23.80;3.00;;;8.10;99.90;;;;;;5185541;22;20150;-95
2022/02/20 02:32:28;;;;;;;26.23;3.43;;;8.20;99.90;;;;;;5179074;22;20169;-95
2022/02/20 02:35:05;;;;;;;40.63;4.43;;;8.20;99.90;;;;;;5181003;22;20230;-94
2022/02/20 02:37:33;;;;;;;32.90;3.87;;;8.30;99.90;;;;;;5177731;22;20205;-95
2022/02/20 02:40:22;;;;;;;26.27;2.93;;;8.60;99.90;;;;;;5182088;22;20173;-95
2022/02/20 02:42:32;;;;;;;28.93;4.33;;;8.70;99.90;;;;;;5179517;22;20183;-95
2022/02/20 02:44:56;;;;;;;36.23;4.83;;;8.60;99.90;;;;;;5180181;22;20240;-95
2022/02/20 02:47:12;;;;;;;45.53;5.67;;;8.60;99.90;;;;;;5180651;22;20155;-96
2022/02/20 02:49:34;;;;;;;52.83;6.00;;;8.60;99.90;;;;;;5160688;22;20146;-94
2022/02/20 02:51:47;;;;;;;33.60;4.43;;;8.70;99.90;;;;;;5158183;23;20156;-96
2022/02/20 02:54:00;;;;;;;37.47;5.10;;;8.70;99.90;;;;;;5184097;22;20139;-96
2022/02/20 02:56:29;;;;;;;38.60;5.10;;;8.70;99.90;;;;;;5177514;22;20178;-95
2022/02/20 02:58:47;;;;;;;33.07;4.70;;;9.00;99.90;;;;;;5182113;22;20155;-96
2022/02/20 03:00:54;;;;;;;43.37;5.00;;;8.90;99.90;;;;;;5174184;22;20155;-96
2022/02/20 03:03:24;;;;;;;38.33;4.47;;;8.70;99.90;;;;;;5181569;22;20169;-96
2022/02/20 03:05:43;;;;;;;37.23;5.27;;;8.80;99.90;;;;;;5184561;22;20181;-96
2022/02/20 03:08:11;;;;;;;40.30;4.93;;;8.70;99.90;;;;;;5177147;22;20174;-96
2022/02/20 03:10:32;;;;;;;40.37;5.63;;;8.80;99.90;;;;;;5203113;22;20208;-95
2022/02/20 03:13:02;;;;;;;33.27;4.37;;;8.70;99.90;;;;;;5158035;22;20188;-96
2022/02/20 03:15:27;;;;;;;48.77;6.17;;;8.50;99.90;;;;;;5145366;22;20180;-95
2022/02/20 03:17:31;;;;;;;51.77;5.07;;;8.50;99.90;;;;;;5134990;23;20148;-95
2022/02/20 03:19:45;;;;;;;42.50;5.77;;;8.50;99.90;;;;;;5156914;23;20162;-94
2022/02/20 03:22:24;;;;;;;45.57;5.20;;;8.50;99.90;;;;;;5133974;23;20152;-95
2022/02/20 03:24:26;;;;;;;50.43;5.40;;;8.40;99.90;;;;;;5135677;23;20201;-95
2022/02/20 03:26:32;;;;;;;51.37;5.20;;;8.40;99.90;;;;;;5130144;23;20149;-94
2022/02/20 03:28:44;;;;;;;52.90;6.47;;;8.40;99.90;;;;;;5131824;23;20175;-94
2022/02/20 03:31:10;;;;;;;53.27;5.93;;;8.60;99.90;;;;;;5182947;23;20150;-95
2022/02/20 03:33:25;;;;;;;50.70;6.80;;;8.60;99.90;;;;;;5130492;23;20199;-94
2022/02/20 03:35:40;;;;;;;62.43;6.83;;;8.60;99.90;;;;;;5133062;23;20148;-95
2022/02/20 03:37:54;;;;;;;60.57;6.63;;;8.50;99.90;;;;;;5173997;22;20210;-93
2022/02/20 03:40:08;;;;;;;51.73;5.17;;;8.50;99.90;;;;;;5156853;23;20131;-96
2022/02/20 03:42:12;;;;;;;57.47;6.93;;;8.40;99.90;;;;;;5153602;23;20156;-94
2022/02/20 03:44:38;;;;;;;48.30;4.50;;;8.30;99.90;;;;;;5160896;23;20194;-95
2022/02/20 03:46:55;;;;;;;55.97;6.57;;;8.30;99.90;;;;;;5158897;23;20163;-95
2022/02/20 03:49:18;;;;;;;54.50;5.83;;;8.40;99.90;;;;;;5156464;23;20156;-95
2022/02/20 03:52:15;;;;;;;51.10;5.77;;;8.40;99.90;;;;;;5170609;22;20131;-95
2022/02/20 03:57:16;;;;;;;48.03;5.10;;;8.40;99.90;;;;;;5208048;22;20186;-96
2022/02/20 04:00:03;;;;;;;48.93;7.03;;;8.40;99.90;;;;;;5141889;23;20163;-95
2022/02/20 04:02:40;;;;;;;40.90;5.10;;;8.40;99.90;;;;;;5134701;23;20181;-95
2022/02/20 04:04:46;;;;;;;44.07;5.13;;;8.40;99.90;;;;;;5176446;22;20173;-95
2022/02/20 04:07:01;;;;;;;38.47;4.83;;;8.40;99.90;;;;;;5157208;23;20148;-95
2022/02/20 04:09:12;;;;;;;38.73;4.50;;;8.40;99.90;;;;;;5206475;22;20154;-95
2022/02/20 04:11:23;;;;;;;48.90;4.27;;;8.30;99.90;;;;;;5180190;23;20155;-95
2022/02/20 04:14:03;;;;;;;41.07;4.93;;;8.30;99.90;;;;;;5206653;22;20158;-95
2022/02/20 04:16:26;;;;;;;43.10;5.50;;;8.40;99.90;;;;;;5205780;22;20157;-94
2022/02/20 04:18:46;;;;;;;34.00;4.67;;;8.50;99.90;;;;;;5181377;23;20679;-96
2022/02/20 04:20:59;;;;;;;35.53;3.93;;;8.50;99.90;;;;;;5184049;22;20572;-95
2022/02/20 04:23:23;;;;;;;43.93;4.63;;;8.60;99.90;;;;;;5192090;22;20197;-94
2022/02/20 04:25:37;;;;;;;39.87;5.03;;;8.50;99.90;;;;;;5152978;23;20187;-94
2022/02/20 04:30:36;;;;;;;19.73;3.87;;;8.60;99.90;;;;;;5142735;23;20549;-95
2022/02/20 04:33:22;;;;;;;24.50;3.87;;;8.60;99.90;;;;;;5145953;22;20167;-96
2022/02/20 04:36:16;;;;;;;37.23;4.90;;;8.60;99.90;;;;;;5209261;22;20208;-95
2022/02/20 04:38:48;;;;;;;32.03;3.90;;;8.70;99.90;;;;;;5187911;22;20212;-96
2022/02/20 04:41:11;;;;;;;28.97;4.43;;;8.80;99.90;;;;;;5155954;23;20146;-94
2022/02/20 04:46:42;;;;;;;14.20;2.43;;;8.60;99.90;;;;;;5148181;22;20203;-95
2022/02/20 04:49:27;;;;;;;32.50;4.53;;;8.60;99.90;;;;;;5155709;23;20156;-94
2022/02/20 04:52:11;;;;;;;41.97;4.97;;;8.70;99.90;;;;;;5123601;23;20195;-94
2022/02/20 04:58:00;;;;;;;34.93;4.63;;;8.80;99.90;;;;;;5155796;22;20193;-94
2022/02/20 05:01:06;;;;;;;25.00;3.60;;;8.80;99.90;;;;;;5162641;23;20166;-96
2022/02/20 05:03:14;;;;;;;31.00;3.73;;;8.80;99.90;;;;;;5152754;23;20186;-95
2022/02/20 05:06:00;;;;;;;36.43;5.00;;;8.90;99.90;;;;;;5105079;23;20157;-96
2022/02/20 05:08:54;;;;;;;24.60;3.13;;;8.90;99.90;;;;;;5117330;23;20162;-95
2022/02/20 05:11:48;;;;;;;26.43;4.07;;;8.90;99.90;;;;;;5136374;23;20159;-94
2022/02/20 05:14:27;;;;;;;24.37;3.37;;;8.80;99.90;;;;;;5062599;23;20221;-94
2022/02/20 05:17:05;;;;;;;38.13;4.37;;;8.70;99.90;;;;;;5076765;23;20172;-95
2022/02/20 05:19:57;;;;;;;26.23;3.27;;;8.70;99.90;;;;;;5112141;23;20176;-96
2022/02/20 05:22:25;;;;;;;36.13;4.20;;;8.80;99.90;;;;;;5107894;23;20165;-95
2022/02/20 05:25:11;;;;;;;24.93;3.43;;;8.70;99.90;;;;;;5137097;23;20180;-94
2022/02/20 05:27:42;;;;;;;26.20;3.23;;;8.80;99.90;;;;;;5138493;23;20242;-93
2022/02/20 05:29:50;;;;;;;34.37;4.03;;;8.80;99.90;;;;;;5136370;23;20137;-95
2022/02/20 05:31:55;;;;;;;29.63;3.87;;;8.80;99.90;;;;;;5181972;22;20162;-95
2022/02/20 05:39:28;;;;;;;24.10;3.30;;;8.80;99.90;;;;;;5142837;23;20199;-96
2022/02/20 05:42:01;;;;;;;29.93;3.33;;;8.90;99.90;;;;;;5140077;23;20136;-95
2022/02/20 05:49:41;;;;;;;18.07;3.40;;;8.90;99.90;;;;;;5160866;22;20234;-95
2022/02/20 05:51:49;;;;;;;25.27;3.77;;;8.90;99.90;;;;;;5136613;23;20502;-94
2022/02/20 05:54:15;;;;;;;29.67;4.00;;;9.00;99.90;;;;;;5155499;22;20195;-94
2022/02/20 05:56:58;;;;;;;22.50;3.07;;;9.00;99.90;;;;;;5191130;22;20202;-94
2022/02/20 05:59:06;;;;;;;31.13;3.63;;;9.20;99.90;;;;;;5162833;23;20140;-95
2022/02/20 06:01:29;;;;;;;32.90;3.47;;;9.40;99.90;;;;;;5217286;22;20138;-95
2022/02/20 06:07:26;;;;;;;19.73;3.03;;;9.40;99.90;;;;;;5183666;22;20465;-95
2022/02/20 06:10:11;;;;;;;22.33;3.03;;;9.30;99.90;;;;;;5182274;22;20155;-94
2022/02/20 06:13:00;;;;;;;16.47;3.13;;;9.20;99.90;;;;;;5209434;22;20173;-94
2022/02/20 06:15:50;;;;;;;24.70;3.83;;;9.20;99.90;;;;;;5154848;22;20163;-94
2022/02/20 06:20:36;;;;;;;18.43;3.37;;;9.30;99.90;;;;;;5179565;22;20194;-96
2022/02/20 06:23:33;;;;;;;26.73;3.77;;;9.50;99.90;;;;;;5117227;23;20156;-96
2022/02/20 06:25:59;;;;;;;23.03;4.10;;;9.30;99.90;;;;;;5114944;23;20180;-96
2022/02/20 06:28:31;;;;;;;26.73;3.80;;;9.20;99.90;;;;;;5155223;22;20227;-96
2022/02/20 06:31:22;;;;;;;28.17;3.67;;;9.30;99.90;;;;;;5162524;22;20139;-96
2022/02/20 06:33:32;;;;;;;26.30;3.43;;;9.30;99.90;;;;;;5158678;22;20143;-95
2022/02/20 06:36:15;;;;;;;23.73;3.37;;;9.20;99.90;;;;;;5159881;22;20159;-96
2022/02/20 06:38:33;;;;;;;19.17;2.90;;;9.30;99.90;;;;;;5163410;22;20577;-96
2022/02/20 06:41:15;;;;;;;13.83;3.00;;;9.30;99.90;;;;;;5187496;22;20214;-96
2022/02/20 06:43:15;;;;;;;12.57;2.30;;;9.30;99.90;;;;;;5185945;22;20242;-95
2022/02/20 06:48:09;;;;;;;21.80;3.47;;;9.40;99.90;;;;;;5172296;22;20217;-95
2022/02/20 06:53:48;;;;;;;17.70;3.20;;;9.30;99.90;;;;;;5202705;22;20174;-96
2022/02/20 06:55:59;;;;;;;23.83;3.73;;;9.30;99.90;;;;;;5210189;22;20152;-95
2022/02/20 06:58:21;;;;;;;25.77;4.30;;;9.40;99.90;;;;;;5189412;22;20181;-96
2022/02/20 07:01:06;;;;;;;26.30;3.37;;;9.30;99.90;;;;;;5210156;22;20153;-95
2022/02/20 07:03:20;;;;;;;20.30;3.53;;;9.40;99.90;;;;;;5183010;22;20226;-96
2022/02/20 07:05:55;;;;;;;19.80;3.60;;;9.50;99.90;;;;;;5162023;23;20159;-96
2022/02/20 07:08:29;;;;;;;20.90;2.80;;;9.50;99.90;;;;;;5158564;22;20259;-96
2022/02/20 07:10:44;;;;;;;30.37;3.70;;;9.60;99.90;;;;;;5184284;22;20539;-96
2022/02/20 07:13:32;;;;;;;18.97;3.17;;;9.60;99.90;;;;;;5187007;22;20171;-95
2022/02/20 07:15:54;;;;;;;22.47;3.03;;;9.50;99.90;;;;;;5185022;22;20200;-96
2022/02/20 07:18:15;;;;;;;21.27;3.33;;;9.30;99.90;;;;;;5183405;22;20127;-96
2022/02/20 07:20:45;;;;;;;24.70;3.27;;;9.30;99.90;;;;;;5157992;23;20144;-96
2022/02/20 07:23:05;;;;;;;25.10;3.10;;;9.30;99.90;;;;;;5204773;22;20601;-96
2022/02/20 07:28:05;;;;;;;;;;;;;;;;;;;;;
2022/02/20 07:33:34;;;;;;;23.27;2.90;;;9.50;99.90;;;;;;5174776;22;20185;-96
2022/02/20 07:36:00;;;;;;;21.03;2.60;;;9.60;99.90;;;;;;5142078;22;20197;-96
2022/02/20 07:38:32;;;;;;;12.07;2.57;;;9.70;99.90;;;;;;5207938;22;20170;-96
2022/02/20 07:41:17;;;;;;;19.53;2.43;;;9.50;99.90;;;;;;5189641;22;20177;-96
2022/02/20 07:43:38;;;;;;;;;;;;;;;;;;;;;
2022/02/20 07:45:58;;;;;;;15.23;2.43;;;9.50;99.90;;;;;;5159651;23;20172;-96
2022/02/20 07:48:41;;;;;;;16.70;2.50;;;9.60;99.90;;;;;;5163423;22;20143;-96
2022/02/20 07:51:24;;;;;;;14.70;2.43;;;9.60;99.90;;;;;;5187409;22;20178;-96
2022/02/20 07:54:09;;;;;;;20.60;3.13;;;9.60;99.90;;;;;;5162099;22;20152;-95
2022/02/20 07:57:04;;;;;;;11.43;1.90;;;9.60;99.90;;;;;;5109580;22;20147;-95
2022/02/20 08:02:38;;;;;;;16.73;2.17;;;9.60;99.90;;;;;;5120493;22;20201;-94
2022/02/20 08:05:18;;;;;;;13.07;2.10;;;9.80;99.90;;;;;;5158820;23;20172;-94
2022/02/20 08:19:00;;;;;;;14.77;2.37;;;9.70;99.90;;;;;;5159367;22;20257;-94
2022/02/20 08:22:03;;;;;;;11.73;2.20;;;9.70;99.90;;;;;;5168737;22;20187;-95
2022/02/20 08:24:12;;;;;;;9.17;1.67;;;9.80;99.90;;;;;;5158788;23;20254;-94
2022/02/20 08:26:31;;;;;;;49.53;24.67;;;9.80;99.90;;;;;;5158686;23;20151;-94
2022/02/20 08:29:29;;;;;;;12.00;2.83;;;9.80;99.90;;;;;;5178527;22;20597;-94
2022/02/20 08:31:33;;;;;;;13.73;2.45;;;9.70;99.90;;;;;;5123409;23;20166;-95
2022/02/20 08:33:38;;;;;;;13.00;2.80;;;9.70;99.90;;;;;;5186505;22;20127;-92
2022/02/20 08:36:16;;;;;;;14.00;3.08;;;10.00;99.90;;;;;;5211393;22;20162;-93
2022/02/20 08:38:50;;;;;;;19.05;3.95;;;10.20;99.90;;;;;;5214609;22;20161;-93
2022/02/20 08:41:10;;;;;;;17.05;3.08;;;10.20;99.90;;;;;;5210644;22;20154;-94
2022/02/20 08:44:03;;;;;;;23.75;3.45;;;10.30;99.90;;;;;;5206618;22;20229;-94
2022/02/20 08:49:14;;;;;;;19.50;3.70;;;10.40;99.90;;;;;;5159202;22;20231;-95
2022/02/20 08:51:29;;;;;;;16.60;3.30;;;10.20;99.90;;;;;;5187890;22;20202;-96
2022/02/20 08:53:55;;;;;;;26.63;4.80;;;10.20;99.90;;;;;;5189109;22;20142;-96
2022/02/20 08:56:26;;;;;;;23.63;3.10;;;10.20;99.90;;;;;;5189301;22;20174;-96
2022/02/20 08:58:57;;;;;;;15.50;2.33;;;10.20;99.90;;;;;;5164155;23;20171;-96
2022/02/20 09:05:59;;;;;;;12.45;1.70;;;10.10;99.90;;;;;;5238121;22;20239;-96
2022/02/20 09:08:16;;;;;;;10.50;2.03;;;10.00;99.90;;;;;;5187239;22;20142;-95
2022/02/20 09:10:48;;;;;;;12.07;2.13;;;9.90;99.90;;;;;;5181699;22;20143;-95
2022/02/20 09:13:13;;;;;;;;;;;;;;;;;;;;;
2022/02/20 09:15:23;;;;;;;13.93;2.30;;;10.00;99.90;;;;;;5214225;22;20181;-94
2022/02/20 09:17:30;;;;;;;14.07;2.37;;;10.00;99.90;;;;;;5237447;22;20154;-96
2022/02/20 09:19:36;;;;;;;17.57;2.33;;;10.00;99.90;;;;;;5216403;22;20222;-95
2022/02/20 09:21:48;;;;;;;20.07;2.90;;;10.10;99.90;;;;;;5189306;23;20135;-94
2022/02/20 09:23:55;;;;;;;27.42;3.13;;;10.10;99.90;;;;;;5187374;22;20170;-96
2022/02/20 09:26:22;;;;;;;20.05;3.03;;;10.10;99.90;;;;;;5218308;22;20157;-95
2022/02/20 09:28:44;;;;;;;;;;;;;;;;;;;;;
2022/02/20 09:31:03;;;;;;;24.63;3.37;;;10.20;99.90;;;;;;5213575;22;20177;-96
2022/02/20 09:33:38;;;;;;;25.58;4.22;;;10.30;99.90;;;;;;5209650;22;20516;-96
2022/02/20 09:35:47;;;;;;;21.38;2.80;;;10.20;99.90;;;;;;5211977;22;20181;-94
2022/02/20 09:40:33;;;;;;;18.33;2.83;;;10.20;99.90;;;;;;5188628;23;20166;-94
2022/02/20 09:42:46;;;;;;;18.97;3.00;;;10.30;99.90;;;;;;5159639;23;20222;-94
2022/02/20 09:44:59;;;;;;;29.10;4.15;;;10.40;99.90;;;;;;5187285;23;20182;-95
2022/02/20 09:47:31;;;;;;;20.05;3.22;;;10.40;99.90;;;;;;5142462;23;20163;-94
2022/02/20 09:52:37;;;;;;;16.02;2.75;;;10.50;99.90;;;;;;5092992;22;20141;-96
2022/02/20 09:54:59;;;;;;;15.73;2.85;;;10.50;99.90;;;;;;5113354;22;20195;-96
2022/02/20 09:57:09;;;;;;;11.53;2.30;;;10.50;99.90;;;;;;5089384;23;20157;-94
2022/02/20 10:03:01;;;;;;;18.05;3.22;;;10.60;99.90;;;;;;5090570;22;20200;-95
2022/02/20 10:05:23;;;;;;;22.75;3.22;;;10.70;99.90;;;;;;5086313;23;20193;-94
2022/02/20 10:08:05;;;;;;;22.00;2.78;;;10.80;99.90;;;;;;5111675;23;20137;-95
2022/02/20 10:10:31;;;;;;;22.67;3.70;;;10.90;99.90;;;;;;5089382;23;20217;-94
2022/02/20 10:13:03;;;;;;;27.88;3.50;;;10.90;99.90;;;;;;5112204;22;20157;-94
2022/02/20 10:15:52;;;;;;;17.88;2.30;;;10.80;99.90;;;;;;5112548;23;20172;-94
2022/02/20 10:18:32;;;;;;;19.35;3.30;;;10.70;99.90;;;;;;5088170;23;20177;-95
2022/02/20 10:21:18;;;;;;;24.88;2.97;;;10.90;99.90;;;;;;5113161;23;20163;-93
2022/02/20 10:26:48;;;;;;;18.92;2.38;;;10.80;99.90;;;;;;5160540;22;20144;-95
2022/02/20 10:29:36;;;;;;;23.23;3.33;;;11.00;99.90;;;;;;5142385;23;20155;-96
2022/02/20 10:32:32;;;;;;;30.25;3.95;;;11.00;99.90;;;;;;5137161;23;20144;-94
2022/02/20 10:35:04;;;;;;;22.75;4.07;;;11.10;99.90;;;;;;5109574;23;20184;-94
2022/02/20 10:37:14;;;;;;;29.33;4.10;;;11.00;99.90;;;;;;5108285;23;20156;-94
2022/02/20 10:39:53;;;;;;;31.48;4.57;;;11.00;99.90;;;;;;5112842;23;20181;-94
2022/02/20 10:42:24;;;;;;;37.00;4.28;;;11.10;99.90;;;;;;5122225;23;20172;-95
2022/02/20 10:44:31;;;;;;;29.15;3.95;;;11.10;99.90;;;;;;5161010;23;20198;-94
2022/02/20 10:47:13;;;;;;;30.38;5.22;;;11.10;99.90;;;;;;5134404;23;20153;-95
2022/02/20 10:49:38;;;;;;;32.88;5.35;;;11.20;99.90;;;;;;5185344;22;20178;-94
2022/02/20 10:51:48;;;;;;;31.17;4.43;;;11.30;99.90;;;;;;5137990;23;20157;-95
2022/02/20 10:56:46;;;;;;;32.67;4.43;;;11.30;99.90;;;;;;5152111;22;20181;-95
2022/02/20 10:59:02;;;;;;;30.80;4.40;;;11.30;99.90;;;;;;5175714;22;20178;-94
2022/02/20 11:01:25;;;;;;;36.33;4.63;;;11.30;99.90;;;;;;5196883;22;20147;-94
2022/02/20 11:04:28;;;;;;;25.50;4.07;;;11.40;99.90;;;;;;5214679;22;20184;-94
2022/02/20 11:06:41;;;;;;;32.03;4.45;;;11.30;99.90;;;;;;5189229;22;20155;-94
2022/02/20 11:08:47;;;;;;;33.25;4.78;;;11.30;99.90;;;;;;5213898;22;20154;-95
2022/02/20 11:10:53;;;;;;;31.25;4.30;;;11.30;99.90;;;;;;5186935;23;20157;-96
2022/02/20 11:15:54;;;;;;;30.88;5.18;;;11.20;99.90;;;;;;5120091;23;20175;-93
2022/02/20 11:17:58;;;;;;;24.95;3.75;;;11.20;99.90;;;;;;5118849;23;20155;-92
2022/02/20 11:20:00;;;;;;;40.15;4.68;;;11.30;99.90;;;;;;5118974;23;20160;-91
2022/02/20 11:22:02;;;;;;;26.80;4.07;;;11.40;99.90;;;;;;5118531;23;20155;-92
2022/02/20 11:24:05;;;;;;;34.28;5.03;;;11.50;99.90;;;;;;5118687;23;20184;-93
2022/02/20 11:26:07;;;;;;;29.98;4.53;;;11.50;99.90;;;;;;5119298;23;20571;-93
2022/02/20 11:28:08;;;;;;;32.35;4.50;;;11.70;99.90;;;;;;5119129;23;20144;-93
2022/02/20 11:30:10;;;;;;;30.50;4.65;;;11.60;99.90;;;;;;5119176;23;20492;-95
2022/02/20 11:32:11;;;;;;;36.42;4.63;;;11.50;99.90;;;;;;5118599;23;20148;-96
2022/02/20 11:34:13;;;;;;;25.90;3.85;;;11.60;99.90;;;;;;5094333;23;20580;-94
2022/02/20 11:36:13;;;;;;;36.22;5.25;;;11.60;99.90;;;;;;5093920;23;20165;-93
2022/02/20 11:38:16;;;;;;;39.55;5.57;;;11.50;99.90;;;;;;5118753;23;20191;-95
2022/02/20 11:40:18;;;;;;;38.63;5.47;;;11.50;99.90;;;;;;5118740;23;20158;-93
2022/02/20 11:42:19;;;;;;;36.20;4.60;;;11.50;99.90;;;;;;5118339;23;20152;-92
2022/02/20 11:44:20;;;;;;;27.00;3.72;;;11.50;99.90;;;;;;5119397;23;20196;-94
2022/02/20 11:46:24;;;;;;;36.40;5.03;;;11.50;99.90;;;;;;5118889;23;20156;-94
2022/02/20 11:48:25;;;;;;;39.75;5.32;;;11.60;99.90;;;;;;5094630;23;20180;-95
2022/02/20 11:50:25;;;;;;;33.92;5.00;;;11.60;99.90;;;;;;5118656;23;20152;-95
2022/02/20 11:52:50;;;;;;;31.73;5.10;;;11.70;99.90;;;;;;5118869;23;20165;-94
2022/02/20 11:54:57;;;;;;;40.63;6.57;;;11.70;99.90;;;;;;5119243;23;20186;-91
2022/02/20 11:57:13;;;;;;;39.35;5.88;;;11.70;99.90;;;;;;5119409;23;20539;-94
2022/02/20 11:59:17;;;;;;;32.35;4.20;;;11.70;99.90;;;;;;5119978;23;20157;-94
2022/02/20 12:01:18;;;;;;;32.38;5.72;;;11.70;99.90;;;;;;5119991;23;20152;-94
2022/02/20 12:03:19;;;;;;;37.15;5.60;;;11.70;99.90;;;;;;5121637;23;20188;-94
2022/02/20 12:05:20;;;;;;;38.10;4.90;;;11.70;99.90;;;;;;5099835;23;20172;-93
2022/02/20 12:07:42;;;;;;;40.72;5.57;;;11.70;99.90;;;;;;5120093;23;20152;-95
2022/02/20 12:09:43;;;;;;;36.03;4.95;;;11.90;99.90;;;;;;5122032;23;20195;-94
2022/02/20 12:11:45;;;;;;;32.55;5.00;;;12.00;99.90;;;;;;5123701;23;20152;-92
2022/02/20 12:13:58;;;;;;;29.38;4.95;;;12.00;99.90;;;;;;5124052;23;20262;-94
2022/02/20 12:16:22;;;;;;;30.20;4.82;;;11.90;99.90;;;;;;5118635;23;20238;-95
2022/02/20 12:18:24;;;;;;;33.05;4.63;;;11.90;99.90;;;;;;5120503;23;20732;-95
2022/02/20 12:20:54;;;;;;;30.35;4.38;;;12.00;99.90;;;;;;5096155;23;20195;-94
2022/02/20 12:23:08;;;;;;;36.15;4.43;;;11.90;99.90;;;;;;5098795;23;20155;-94
2022/02/20 12:25:09;;;;;;;35.67;5.18;;;11.80;99.90;;;;;;5099007;23;20188;-96
2022/02/20 12:27:21;;;;;;;23.67;4.18;;;11.70;99.90;;;;;;5077233;23;20181;-96
2022/02/20 12:29:48;;;;;;;35.90;5.13;;;11.70;99.90;;;;;;5099237;23;20149;-95
2022/02/20 12:32:13;;;;;;;34.83;4.90;;;11.90;99.90;;;;;;5098129;23;20157;-95
2022/02/20 12:34:53;;;;;;;33.60;4.80;;;11.90;99.90;;;;;;5106119;23;20207;-94
2022/02/20 12:36:55;;;;;;;36.40;5.65;;;12.00;99.90;;;;;;5121902;23;20152;-95
2022/02/20 12:39:04;;;;;;;35.30;5.82;;;12.10;99.90;;;;;;5130541;23;20195;-95
2022/02/20 12:41:08;;;;;;;29.38;4.70;;;12.10;99.90;;;;;;5126134;23;20156;-96
2022/02/20 12:43:10;;;;;;;36.83;5.80;;;12.00;99.90;;;;;;5127855;23;20149;-94
2022/02/20 12:45:17;;;;;;;46.42;5.55;;;11.90;99.90;;;;;;5097867;23;20184;-94
2022/02/20 12:47:19;;;;;;;43.17;5.82;;;11.90;99.90;;;;;;5094595;23;20623;-94
2022/02/20 12:49:19;;;;;;;27.73;4.10;;;12.00;99.90;;;;;;5093782;23;20647;-94
2022/02/20 12:51:20;;;;;;;42.70;5.30;;;11.90;99.90;;;;;;5117826;23;20148;-94
2022/02/20 12:53:24;;;;;;;34.75;5.22;;;11.90;99.90;;;;;;5118342;23;20171;-94
2022/02/20 12:55:25;;;;;;;33.85;5.50;;;11.90;99.90;;;;;;5094235;23;20235;-94
2022/02/20 12:57:27;;;;;;;36.95;5.50;;;11.90;99.90;;;;;;5093634;23;20152;-95
2022/02/20 12:59:28;;;;;;;38.33;5.70;;;11.90;99.90;;;;;;5093502;23;20149;-94
2022/02/20 13:01:29;;;;;;;46.83;5.72;;;11.80;99.90;;;;;;5093425;23;20160;-93
2022/02/20 13:03:30;;;;;;;37.53;5.00;;;11.70;99.90;;;;;;5093252;23;20181;-94
2022/02/20 13:05:34;;;;;;;41.30;5.63;;;11.80;99.90;;;;;;5117893;23;20187;-95
2022/02/20 13:07:46;;;;;;;41.13;6.43;;;11.60;99.90;;;;;;5117819;23;20183;-95
2022/02/20 13:09:48;;;;;;;28.30;4.13;;;11.50;99.90;;;;;;5117873;23;20152;-96
2022/02/20 13:11:48;;;;;;;30.17;5.47;;;11.60;99.90;;;;;;5117869;23;20227;-95
2022/02/20 13:13:49;;;;;;;38.90;5.32;;;11.60;99.90;;;;;;5117952;23;20290;-92
2022/02/20 13:15:56;;;;;;;41.47;4.80;;;11.60;99.90;;;;;;5118469;23;20172;-94
2022/02/20 13:18:07;;;;;;;36.63;5.30;;;11.60;99.90;;;;;;5122507;23;20159;-93
2022/02/20 13:20:30;;;;;;;36.30;5.85;;;11.60;99.90;;;;;;5126401;23;20148;-94
2022/02/20 13:22:30;;;;;;;37.78;5.68;;;11.50;99.90;;;;;;5140568;23;20140;-94
2022/02/20 13:24:31;;;;;;;37.47;6.05;;;11.40;99.90;;;;;;5099650;23;20197;-95
2022/02/20 13:26:32;;;;;;;30.58;5.05;;;11.50;99.90;;;;;;5118921;23;20697;-93
2022/02/20 13:28:41;;;;;;;36.67;5.05;;;11.50;99.90;;;;;;5118389;23;20661;-94
2022/02/20 13:30:45;;;;;;;39.80;5.55;;;11.50;99.90;;;;;;5118650;23;20190;-95
2022/02/20 13:32:46;;;;;;;37.05;5.13;;;11.50;99.90;;;;;;5118118;23;20183;-93
2022/02/20 13:34:57;;;;;;;32.80;5.15;;;11.40;99.90;;;;;;5118142;23;20176;-93
2022/02/20 13:37:09;;;;;;;33.83;5.15;;;11.40;99.90;;;;;;5118178;23;20650;-94